createdAt,value
2022-08-11T00:02:03.159Z,13.93
2022-08-11T00:04:40.000Z,15.30
2022-08-11T00:07:12.435Z,21.10
2022-08-11T00:09:42.789Z,16.85
2022-08-11T00:12:18.354Z,14.63
2022-08-11T00:14:46.715Z,16.23
2022-08-11T00:17:19.222Z,21.33
2022-08-11T00:20:12.826Z,15.27
2022-08-11T00:22:45.439Z,18.35
2022-08-11T00:25:19.961Z,18.05
2022-08-11T00:27:48.942Z,18.02
2022-08-11T00:30:17.091Z,17.83
2022-08-11T00:32:53.589Z,17.58
2022-08-11T00:35:51.650Z,16.77
2022-08-11T00:38:25.307Z,20.65
2022-08-11T00:41:31.745Z,17.08
2022-08-11T00:44:17.882Z,19.33
2022-08-11T00:47:15.206Z,18.00
2022-08-11T00:50:10.353Z,13.32
2022-08-11T00:52:47.785Z,16.88
2022-08-11T00:55:42.495Z,15.48
2022-08-11T00:59:00.088Z,15.00
2022-08-11T01:01:54.654Z,18.60
2022-08-11T01:04:57.183Z,16.63
2022-08-11T01:07:59.080Z,15.07
2022-08-11T01:10:45.273Z,10.05
2022-08-11T01:13:35.700Z,10.27
2022-08-11T01:16:34.409Z,15.55
2022-08-11T01:20:45.904Z,9.77
2022-08-11T01:22:50.239Z,11.23
2022-08-11T01:25:56.749Z,16.30
2022-08-11T01:29:04.383Z,17.33
2022-08-11T01:32:05.392Z,14.40
2022-08-11T01:35:07.177Z,12.55
2022-08-11T01:37:59.483Z,15.20
2022-08-11T01:40:52.333Z,13.13
2022-08-11T01:44:03.741Z,13.82
2022-08-11T01:46:58.823Z,14.20
2022-08-11T01:50:07.218Z,18.15
2022-08-11T01:52:49.306Z,15.77
2022-08-11T01:55:27.040Z,17.33
2022-08-11T01:58:17.072Z,14.35
2022-08-11T02:01:14.212Z,15.70
2022-08-11T02:04:07.097Z,13.80
2022-08-11T02:06:56.340Z,13.63
2022-08-11T02:09:49.794Z,13.18
2022-08-11T02:12:52.504Z,16.45
2022-08-11T02:15:44.035Z,16.73
2022-08-11T02:18:44.529Z,12.73
2022-08-11T02:21:41.208Z,15.60
2022-08-11T02:24:21.724Z,13.93
2022-08-11T02:27:01.224Z,12.68
2022-08-11T02:30:05.500Z,11.95
2022-08-11T02:33:03.386Z,11.23
2022-08-11T02:35:37.130Z,9.95
2022-08-11T02:38:37.318Z,10.05
2022-08-11T02:41:40.347Z,12.18
2022-08-11T02:44:17.129Z,12.98
2022-08-11T02:47:18.310Z,11.73
2022-08-11T02:50:07.237Z,12.68
2022-08-11T02:53:10.137Z,12.02
2022-08-11T02:55:57.748Z,11.77
2022-08-11T02:59:08.122Z,9.60
2022-08-11T03:02:25.133Z,11.35
2022-08-11T03:05:13.166Z,10.13
2022-08-11T03:08:15.068Z,8.68
2022-08-11T03:11:16.942Z,9.45
2022-08-11T03:14:25.566Z,7.30
2022-08-11T03:17:14.444Z,9.30
2022-08-11T03:19:47.633Z,14.25
2022-08-11T03:22:29.456Z,10.57
2022-08-11T03:25:17.816Z,8.45
2022-08-11T03:28:24.769Z,13.80
2022-08-11T03:31:25.265Z,18.08
2022-08-11T03:34:13.024Z,21.17
2022-08-11T03:37:17.621Z,19.17
2022-08-11T03:40:05.100Z,17.02
2022-08-11T03:42:50.555Z,21.17
2022-08-11T03:48:28.811Z,13.38
2022-08-11T03:51:10.427Z,12.27
2022-08-11T03:53:59.648Z,10.75
2022-08-11T03:56:57.586Z,12.23
2022-08-11T03:59:56.749Z,13.45
2022-08-11T04:02:47.657Z,9.77
2022-08-11T04:06:15.353Z,13.75
2022-08-11T04:09:00.931Z,12.95
2022-08-11T04:11:51.450Z,10.88
2022-08-11T04:15:06.781Z,14.25
2022-08-11T04:18:06.383Z,15.50
2022-08-11T04:21:01.729Z,13.05
2022-08-11T04:24:36.636Z,15.93
2022-08-11T04:27:14.441Z,15.23
2022-08-11T04:30:17.645Z,11.70
2022-08-11T04:44:31.993Z,12.30
2022-08-11T04:50:26.284Z,10.65
2022-08-11T04:53:21.722Z,11.55
2022-08-11T04:56:35.074Z,13.15
2022-08-11T05:19:47.820Z,12.35
2022-08-11T05:50:00.918Z,14.73
2022-08-11T05:58:16.754Z,12.77
2022-08-11T06:00:46.909Z,11.77
2022-08-11T06:03:28.238Z,10.95
2022-08-11T06:06:00.213Z,8.13
2022-08-11T06:08:36.425Z,7.07
2022-08-11T06:11:09.156Z,6.05
2022-08-11T06:13:47.246Z,8.25
2022-08-11T06:16:20.739Z,3.88
2022-08-11T06:18:49.225Z,5.95
2022-08-11T06:21:17.341Z,6.38
2022-08-11T06:23:45.739Z,5.03
2022-08-11T06:26:14.522Z,8.25
2022-08-11T06:28:47.018Z,4.30
2022-08-11T06:31:20.373Z,5.53
2022-08-11T06:34:08.165Z,7.88
2022-08-11T06:36:48.784Z,4.70
2022-08-11T06:39:33.985Z,5.78
2022-08-11T06:42:14.498Z,4.68
2022-08-11T06:44:48.619Z,6.35
2022-08-11T06:47:18.181Z,6.70
2022-08-11T06:50:05.904Z,5.85
2022-08-11T06:52:40.391Z,3.40
2022-08-11T06:55:55.804Z,5.17
2022-08-11T06:58:50.898Z,4.20
2022-08-11T07:01:49.395Z,4.28
2022-08-11T07:04:49.274Z,2.42
2022-08-11T07:08:34.140Z,4.78
2022-08-11T07:11:39.899Z,4.20
2022-08-11T07:14:27.217Z,4.90
2022-08-11T07:16:56.031Z,3.53
2022-08-11T07:19:46.437Z,7.07
2022-08-11T07:22:33.210Z,5.65
2022-08-11T07:25:24.514Z,4.20
2022-08-11T07:28:29.501Z,7.53
2022-08-11T07:31:03.447Z,4.47
2022-08-11T07:34:07.299Z,3.63
2022-08-11T07:36:30.903Z,6.93
2022-08-11T07:38:58.971Z,5.90
2022-08-11T07:41:28.811Z,10.48
2022-08-11T07:44:09.087Z,4.45
2022-08-11T07:47:03.371Z,3.47
2022-08-11T07:49:52.861Z,4.07
2022-08-11T07:52:27.673Z,6.57
2022-08-11T07:54:57.305Z,5.57
2022-08-11T07:58:14.524Z,5.38
2022-08-11T08:00:56.256Z,5.75
2022-08-11T08:03:54.614Z,5.03
2022-08-11T08:06:41.498Z,5.65
2022-08-11T08:09:27.807Z,6.28
2022-08-11T08:12:15.489Z,5.15
2022-08-11T08:15:01.554Z,6.35
2022-08-11T08:18:09.137Z,8.10
2022-08-11T08:20:45.730Z,6.20
2022-08-11T08:23:13.324Z,9.00
2022-08-11T08:25:43.565Z,9.32
2022-08-11T08:28:16.552Z,3.80
2022-08-11T08:30:47.951Z,9.18
2022-08-11T08:33:23.791Z,5.68
2022-08-11T08:36:12.658Z,10.45
2022-08-11T08:38:54.327Z,9.48
2022-08-11T08:41:29.985Z,8.35
2022-08-11T08:44:37.213Z,3.47
2022-08-11T08:47:01.268Z,6.45
2022-08-11T08:49:40.147Z,5.03
2022-08-11T08:52:21.125Z,5.05
2022-08-11T08:54:57.141Z,3.45
2022-08-11T08:57:28.112Z,6.43
2022-08-11T08:59:56.528Z,6.32
2022-08-11T09:02:34.623Z,3.97
2022-08-11T09:05:04.714Z,4.57
2022-08-11T09:07:39.008Z,4.30
2022-08-11T09:10:09.935Z,5.13
2022-08-11T09:12:40.930Z,6.93
2022-08-11T09:15:10.610Z,5.13
2022-08-11T09:17:45.132Z,7.18
2022-08-11T09:20:20.457Z,5.53
2022-08-11T09:26:16.599Z,9.30
2022-08-11T09:28:45.152Z,6.57
2022-08-11T09:31:13.671Z,5.20
2022-08-11T09:33:43.228Z,5.20
2022-08-11T09:36:30.679Z,6.15
2022-08-11T09:39:17.149Z,4.47
2022-08-11T09:42:01.217Z,2.65
2022-08-11T09:44:49.374Z,4.63
2022-08-11T09:47:23.734Z,3.40
2022-08-11T09:49:55.084Z,7.90
2022-08-11T09:52:24.196Z,3.80
2022-08-11T09:54:52.975Z,2.80
2022-08-11T09:57:40.794Z,5.50
2022-08-11T10:00:12.720Z,4.78
2022-08-11T10:02:46.959Z,6.60
2022-08-11T10:05:36.959Z,7.45
2022-08-11T10:08:07.503Z,5.10
2022-08-11T10:10:39.146Z,4.57
2022-08-11T10:14:04.862Z,8.95
2022-08-11T10:16:14.739Z,8.75
2022-08-11T10:18:53.267Z,5.28
2022-08-11T10:21:28.538Z,5.97
2022-08-11T10:24:17.533Z,5.88
2022-08-11T10:26:55.067Z,6.40
2022-08-11T10:29:49.979Z,8.50
2022-08-11T10:32:58.639Z,28.98
2022-08-11T10:35:29.003Z,7.45
2022-08-11T10:38:08.748Z,9.70
2022-08-11T10:40:41.157Z,9.68
2022-08-11T10:43:18.804Z,9.40
2022-08-11T10:46:40.410Z,4.93
2022-08-11T10:49:10.186Z,21.50
2022-08-11T10:51:58.586Z,11.85
2022-08-11T10:54:45.642Z,10.32
2022-08-11T10:57:34.274Z,2.67
2022-08-11T11:00:01.894Z,12.65
2022-08-11T11:02:29.895Z,6.32
2022-08-11T11:04:59.794Z,6.53
2022-08-11T11:07:48.002Z,8.98
2022-08-11T11:10:16.204Z,4.55
2022-08-11T11:13:05.292Z,9.85
2022-08-11T11:15:54.388Z,6.22
2022-08-11T11:18:23.412Z,12.50
2022-08-11T11:21:08.716Z,9.20
2022-08-11T11:23:59.194Z,5.22
2022-08-11T11:26:56.013Z,5.13
2022-08-11T11:29:32.072Z,6.82
2022-08-11T11:32:46.492Z,3.90
2022-08-11T11:35:16.406Z,4.57
2022-08-11T11:38:03.560Z,4.93
2022-08-11T11:40:33.211Z,10.85
2022-08-11T11:43:01.834Z,9.55
2022-08-11T11:45:29.077Z,7.32
2022-08-11T11:47:59.757Z,10.45
2022-08-11T11:50:31.624Z,10.77
2022-08-11T11:53:02.365Z,7.43
2022-08-11T11:55:30.716Z,5.95
2022-08-11T11:58:19.449Z,8.35
2022-08-11T12:01:06.368Z,5.22
2022-08-11T12:03:35.769Z,6.05
2022-08-11T12:06:04.227Z,4.20
2022-08-11T12:08:32.351Z,4.30
2022-08-11T12:11:26.765Z,6.38
2022-08-11T12:13:56.254Z,3.85
2022-08-11T12:16:34.668Z,8.43
2022-08-11T12:19:24.687Z,7.03
2022-08-11T12:22:11.401Z,11.23
2022-08-11T12:24:58.106Z,13.18
2022-08-11T12:27:26.959Z,7.68
2022-08-11T12:30:06.051Z,17.80
2022-08-11T12:32:35.380Z,5.60
2022-08-11T12:35:03.085Z,5.97
2022-08-11T12:37:40.960Z,9.30
2022-08-11T12:40:43.408Z,8.75
2022-08-11T12:43:41.594Z,4.60
2022-08-11T12:46:14.546Z,6.55
2022-08-11T12:49:05.536Z,11.52
2022-08-11T12:52:08.549Z,8.85
2022-08-11T12:54:41.706Z,12.35
2022-08-11T12:57:37.958Z,11.45
2022-08-11T13:00:29.087Z,16.38
2022-08-11T13:03:16.114Z,10.43
2022-08-11T13:05:45.792Z,4.85
2022-08-11T13:08:17.189Z,15.63
2022-08-11T13:11:04.508Z,8.43
2022-08-11T13:13:55.084Z,11.32
2022-08-11T13:16:26.623Z,6.32
2022-08-11T13:18:54.732Z,6.85
2022-08-11T13:21:23.128Z,4.50
2022-08-11T13:24:01.818Z,9.63
2022-08-11T13:26:49.366Z,7.50
2022-08-11T13:29:23.369Z,7.90
2022-08-11T13:31:52.441Z,3.38
2022-08-11T13:34:21.230Z,5.10
2022-08-11T13:36:53.733Z,4.53
2022-08-11T13:39:24.262Z,8.60
2022-08-11T13:41:55.557Z,8.38
2022-08-11T13:44:26.010Z,6.57
2022-08-11T13:46:57.949Z,8.20
2022-08-11T13:49:28.631Z,6.15
2022-08-11T13:51:57.736Z,11.00
2022-08-11T13:54:28.221Z,7.95
2022-08-11T13:56:58.022Z,12.57
2022-08-11T13:59:29.979Z,4.63
2022-08-11T14:02:22.153Z,5.00
2022-08-11T14:04:54.609Z,3.38
2022-08-11T14:07:24.313Z,6.85
2022-08-11T14:09:58.116Z,10.02
2022-08-11T14:12:48.000Z,5.53
2022-08-11T14:15:25.261Z,6.35
2022-08-11T14:17:57.369Z,8.38
2022-08-11T14:20:39.501Z,7.65
2022-08-11T14:23:12.146Z,6.47
2022-08-11T14:26:02.425Z,10.27
2022-08-11T14:28:40.279Z,3.45
2022-08-11T14:31:12.560Z,9.68
2022-08-11T14:34:00.347Z,5.65
2022-08-11T14:36:39.056Z,9.93
2022-08-11T14:39:17.215Z,5.72
2022-08-11T14:42:12.596Z,7.57
2022-08-11T14:45:04.566Z,4.97
2022-08-11T14:47:34.598Z,9.88
2022-08-11T14:50:11.363Z,10.73
2022-08-11T14:53:10.572Z,5.60
2022-08-11T14:56:03.084Z,7.25
2022-08-11T14:58:33.986Z,5.38
2022-08-11T15:01:03.122Z,8.30
2022-08-11T15:03:34.011Z,18.23
2022-08-11T15:06:02.672Z,10.57
2022-08-11T15:08:54.645Z,7.03
2022-08-11T15:11:51.362Z,14.35
2022-08-11T15:17:09.858Z,6.80
2022-08-11T15:20:00.461Z,8.77
2022-08-11T15:22:46.223Z,4.15
2022-08-11T15:25:16.361Z,9.60
2022-08-11T15:28:05.960Z,11.18
2022-08-11T15:30:55.570Z,10.85
2022-08-11T15:33:44.675Z,6.60
2022-08-11T15:36:33.446Z,7.85
2022-08-11T15:39:20.710Z,6.97
2022-08-11T15:42:31.023Z,5.30
2022-08-11T15:45:21.553Z,6.28
2022-08-11T15:48:05.108Z,5.90
2022-08-11T15:50:38.969Z,8.40
2022-08-11T15:53:23.737Z,12.07
2022-08-11T15:55:51.883Z,6.95
2022-08-11T15:58:41.635Z,6.65
2022-08-11T16:01:29.001Z,7.72
2022-08-11T16:04:13.943Z,3.95
2022-08-11T16:06:47.870Z,8.15
2022-08-11T16:12:23.881Z,10.05
2022-08-11T16:15:20.549Z,7.10
2022-08-11T16:20:25.809Z,14.25
2022-08-11T16:23:02.584Z,20.25
2022-08-11T16:27:02.535Z,39.10
2022-08-11T16:28:22.215Z,28.60
2022-08-11T16:30:51.566Z,16.83
2022-08-11T16:33:48.237Z,21.60
2022-08-11T16:36:30.906Z,9.90
2022-08-11T16:38:59.632Z,15.85
2022-08-11T16:41:59.756Z,18.13
2022-08-11T16:44:46.938Z,12.55
2022-08-11T16:47:17.943Z,13.18
2022-08-11T16:50:08.283Z,14.13
2022-08-11T16:52:38.864Z,9.10
2022-08-11T16:55:06.928Z,12.43
2022-08-11T16:57:56.787Z,13.85
2022-08-11T17:00:30.505Z,13.32
2022-08-11T17:03:19.457Z,11.40
2022-08-11T17:06:10.754Z,13.32
2022-08-11T17:09:09.747Z,11.48
2022-08-11T17:12:03.544Z,9.40
2022-08-11T17:14:43.782Z,18.50
2022-08-11T17:17:27.151Z,13.35
2022-08-11T17:20:38.553Z,16.15
2022-08-11T17:23:06.801Z,14.55
2022-08-11T17:25:59.608Z,18.65
2022-08-11T17:28:33.799Z,12.85
2022-08-11T17:31:22.619Z,14.05
2022-08-11T17:34:09.991Z,11.98
2022-08-11T17:36:40.447Z,10.32
2022-08-11T17:39:13.891Z,12.77
2022-08-11T17:42:01.039Z,15.70
2022-08-11T17:44:47.408Z,12.82
2022-08-11T17:47:34.677Z,7.55
2022-08-11T17:50:10.622Z,10.45
2022-08-11T17:53:06.396Z,13.13
2022-08-11T17:55:55.584Z,8.40
2022-08-11T17:58:44.374Z,9.73
2022-08-11T18:01:12.967Z,9.82
2022-08-11T18:03:54.562Z,12.95
2022-08-11T18:06:34.028Z,13.32
2022-08-11T18:09:26.415Z,14.38
2022-08-11T18:12:14.556Z,16.25
2022-08-11T18:15:05.987Z,11.32
2022-08-11T18:17:52.273Z,13.35
2022-08-11T18:20:39.011Z,11.73
2022-08-11T18:23:41.703Z,17.42
2022-08-11T18:29:22.828Z,17.58
2022-08-11T18:32:12.171Z,14.07
2022-08-11T18:35:09.000Z,12.63
2022-08-11T18:37:56.332Z,13.77
2022-08-11T18:40:46.594Z,15.90
2022-08-11T18:43:37.007Z,18.38
2022-08-11T18:46:27.306Z,12.60
2022-08-11T18:49:17.949Z,17.45
2022-08-11T18:52:07.325Z,22.05
2022-08-11T18:54:56.522Z,17.88
2022-08-11T18:57:54.130Z,23.02
2022-08-11T19:00:45.451Z,21.38
2022-08-11T19:03:43.413Z,16.90
2022-08-11T19:06:40.889Z,21.27
2022-08-11T19:09:31.659Z,18.80
2022-08-11T19:12:19.150Z,23.48
2022-08-11T19:15:06.558Z,24.45
2022-08-11T19:17:54.919Z,21.45
2022-08-11T19:20:44.417Z,21.98
2022-08-11T19:23:34.155Z,26.52
2022-08-11T19:26:22.709Z,29.83
2022-08-11T19:30:07.161Z,38.75
2022-08-11T19:32:20.606Z,36.90
2022-08-11T19:35:06.937Z,27.25
2022-08-11T19:37:54.453Z,31.88
2022-08-11T19:40:41.566Z,41.28
2022-08-11T19:43:29.319Z,32.08
2022-08-11T19:46:21.159Z,28.88
2022-08-11T19:49:12.631Z,23.45
2022-08-11T19:51:59.095Z,21.55
2022-08-11T19:54:52.047Z,22.88
2022-08-11T19:57:40.389Z,23.08
2022-08-11T20:00:36.423Z,27.67
2022-08-11T20:03:27.439Z,20.63
2022-08-11T20:06:19.489Z,27.15
2022-08-11T20:09:07.678Z,20.92
2022-08-11T20:11:57.960Z,23.90
2022-08-11T20:14:45.386Z,26.77
2022-08-11T20:17:35.080Z,29.92
2022-08-11T20:20:30.079Z,28.80
2022-08-11T20:23:20.624Z,28.42
2022-08-11T20:26:29.658Z,32.53
2022-08-11T20:32:06.343Z,22.88
2022-08-11T20:34:56.997Z,26.85
2022-08-11T20:37:50.193Z,24.52
2022-08-11T20:40:39.463Z,27.92
2022-08-11T20:44:07.861Z,25.95
2022-08-11T20:46:39.371Z,36.08
2022-08-11T20:49:40.892Z,31.40
2022-08-11T20:52:36.176Z,20.10
2022-08-11T20:58:49.124Z,22.23
2022-08-11T21:01:41.289Z,22.77
2022-08-11T21:04:27.571Z,27.63
2022-08-11T21:07:15.189Z,21.08
2022-08-11T21:10:24.024Z,18.42
2022-08-11T21:13:25.946Z,17.65
2022-08-11T21:16:25.359Z,23.27
2022-08-11T21:19:18.173Z,17.15
2022-08-11T21:22:05.686Z,29.70
2022-08-11T21:24:53.316Z,25.30
2022-08-11T21:27:40.502Z,27.48
2022-08-11T21:30:26.646Z,19.02
2022-08-11T21:33:13.940Z,20.50
2022-08-11T21:36:01.454Z,19.27
2022-08-11T21:38:48.052Z,21.88
2022-08-11T21:41:35.538Z,18.40
2022-08-11T21:44:25.065Z,18.90
2022-08-11T21:47:13.101Z,24.35
2022-08-11T21:50:00.769Z,21.25
2022-08-11T21:52:47.311Z,17.75
2022-08-11T21:55:33.823Z,23.08
2022-08-11T21:58:20.163Z,20.13
2022-08-11T22:01:06.075Z,18.20
2022-08-11T22:03:51.778Z,19.85
2022-08-11T22:06:38.795Z,24.75
2022-08-11T22:09:24.217Z,20.42
2022-08-11T22:12:29.569Z,15.65
2022-08-11T22:15:16.706Z,29.17
2022-08-11T22:18:02.770Z,21.55
2022-08-11T22:20:50.810Z,20.55
2022-08-11T22:23:38.054Z,36.85
2022-08-11T22:26:25.182Z,23.38
2022-08-11T22:29:12.077Z,20.15
2022-08-11T22:31:59.140Z,29.73
2022-08-11T22:34:52.966Z,25.27
2022-08-11T22:37:41.104Z,23.75
2022-08-11T22:40:28.438Z,26.77
2022-08-11T22:43:14.535Z,26.27
2022-08-11T22:46:00.294Z,24.38
2022-08-11T22:48:49.224Z,22.10
2022-08-11T22:51:38.735Z,21.15
2022-08-11T22:54:25.778Z,17.17
2022-08-11T22:57:12.070Z,17.35
2022-08-11T22:59:58.894Z,18.95
2022-08-11T23:02:47.479Z,14.65
2022-08-11T23:05:34.817Z,21.33
2022-08-11T23:08:21.306Z,11.93
2022-08-11T23:11:08.204Z,10.10
2022-08-11T23:13:53.840Z,17.88
2022-08-11T23:16:40.211Z,18.98
2022-08-11T23:20:01.639Z,19.77
2022-08-11T23:22:36.887Z,14.52
2022-08-11T23:25:35.526Z,12.05
2022-08-11T23:28:21.881Z,18.47
2022-08-11T23:31:12.301Z,14.80
2022-08-11T23:34:00.640Z,15.00
2022-08-11T23:36:47.572Z,14.73
2022-08-11T23:39:34.088Z,14.95
2022-08-11T23:42:21.187Z,14.68
2022-08-11T23:45:09.471Z,15.90
2022-08-11T23:47:56.979Z,20.52
2022-08-11T23:50:43.650Z,26.65
2022-08-11T23:56:15.064Z,14.55
2022-08-11T23:59:00.910Z,16.08
